Time;durP1;ratioP1;P1;durP2;ratioP2;P2;SDS_P1;SDS_P2;PMS_P1;PMS_P2;Temp;Humidity;BMP_temperature;BMP_pressure;BME280_temperature;BME280_humidity;BME280_pressure;Samples;Min_cycle;Max_cycle;Signal;HPM_P1;HPM_P2
2023/05/24 00:00:10;;;;;;;6.80;4.38;;;;;;;;;;6282244;22;20340;-80
2023/05/24 00:02:56;;;;;;;10.05;4.50;;;;;;;;;;6283642;22;20368;-81
2023/05/24 00:05:42;;;;;;;8.85;4.55;;;;;;;;;;6283682;22;20433;-80
2023/05/24 00:08:28;;;;;;;6.47;4.80;;;;;;;;;;6283304;22;20012;-81
2023/05/24 00:11:13;;;;;;;7.15;5.40;;;;;;;;;;6282851;22;20015;-80
2023/05/24 00:13:59;;;;;;;5.53;4.63;;;;;;;;;;6283433;22;20012;-79
2023/05/24 00:16:45;;;;;;;7.20;5.30;;;;;;;;;;6283557;22;20424;-80
2023/05/24 00:19:29;;;;;;;8.65;4.93;;;;;;;;;;6282125;22;20016;-79
2023/05/24 00:22:14;;;;;;;6.20;4.55;;;;;;;;;;6283116;22;20016;-81
2023/05/24 00:25:00;;;;;;;9.23;4.75;;;;;;;;;;6281906;22;20015;-82
2023/05/24 00:27:45;;;;;;;6.35;4.53;;;;;;;;;;6284765;22;20328;-78
2023/05/24 00:30:31;;;;;;;7.22;4.60;;;;;;;;;;6284811;22;20328;-79
2023/05/24 00:33:17;;;;;;;6.75;4.85;;;;;;;;;;6284900;22;20007;-79
2023/05/24 00:36:02;;;;;;;8.63;5.22;;;;;;;;;;6283290;22;20325;-79
2023/05/24 00:38:47;;;;;;;8.18;4.97;;;;;;;;;;6283674;22;20071;-80
2023/05/24 00:41:34;;;;;;;7.32;4.68;;;;;;;;;;6283488;22;20332;-79
2023/05/24 00:44:19;;;;;;;7.65;4.75;;;;;;;;;;6283440;22;20020;-80
2023/05/24 00:47:05;;;;;;;6.05;4.30;;;;;;;;;;6284903;22;20007;-80
2023/05/24 00:49:53;;;;;;;7.35;4.47;;;;;;;;;;6283850;22;20016;-80
2023/05/24 00:52:40;;;;;;;7.10;4.75;;;;;;;;;;6286992;22;20019;-82
2023/05/24 00:55:26;;;;;;;5.93;4.40;;;;;;;;;;6286790;22;20325;-80
2023/05/24 00:58:11;;;;;;;7.53;5.00;;;;;;;;;;6286575;22;20024;-80
2023/05/24 01:01:01;;;;;;;6.35;4.47;;;;;;;;;;6286948;22;20012;-81
2023/05/24 01:03:47;;;;;;;6.07;4.63;;;;;;;;;;6286063;22;20020;-80
2023/05/24 01:06:43;;;;;;;7.40;4.95;;;;;;;;;;6286895;22;20020;-81
2023/05/24 01:09:40;;;;;;;9.55;5.10;;;;;;;;;;6286705;22;20016;-81
2023/05/24 01:12:52;;;;;;;7.15;4.47;;;;;;;;;;6286368;22;20324;-80
2023/05/24 01:15:51;;;;;;;8.77;4.90;;;;;;;;;;6263649;22;20329;-80
2023/05/24 01:18:59;;;;;;;7.22;4.82;;;;;;;;;;6286397;22;20016;-79
2023/05/24 01:21:58;;;;;;;9.02;4.60;;;;;;;;;;6285373;22;20425;-79
2023/05/24 01:25:06;;;;;;;6.05;4.82;;;;;;;;;;6285349;22;20020;-80
2023/05/24 01:27:52;;;;;;;6.93;4.38;;;;;;;;;;6286182;22;20020;-80
2023/05/24 01:30:41;;;;;;;9.38;4.68;;;;;;;;;;6286730;22;20012;-79
2023/05/24 01:33:27;;;;;;;6.75;4.88;;;;;;;;;;6286216;22;20016;-81
2023/05/24 01:36:15;;;;;;;5.65;4.32;;;;;;;;;;6285291;22;20329;-79
2023/05/24 01:39:01;;;;;;;7.25;4.80;;;;;;;;;;6284814;22;20012;-81
2023/05/24 01:42:10;;;;;;;6.85;4.85;;;;;;;;;;6284940;22;20016;-79
2023/05/24 01:45:12;;;;;;;7.30;4.60;;;;;;;;;;6286578;22;20007;-79
2023/05/24 01:48:17;;;;;;;6.53;4.45;;;;;;;;;;6287516;22;20015;-79
2023/05/24 01:51:06;;;;;;;9.70;4.63;;;;;;;;;;6289586;22;20436;-79
2023/05/24 01:53:53;;;;;;;10.57;4.63;;;;;;;;;;6286355;22;20016;-81
2023/05/24 01:56:40;;;;;;;7.15;4.93;;;;;;;;;;6288381;22;20012;-79
2023/05/24 01:59:28;;;;;;;6.15;4.70;;;;;;;;;;6289467;22;20016;-80
2023/05/24 02:02:13;;;;;;;9.70;4.82;;;;;;;;;;6287723;22;20024;-79
2023/05/24 02:04:59;;;;;;;6.43;4.55;;;;;;;;;;6289340;22;20428;-81
2023/05/24 02:07:45;;;;;;;10.60;4.75;;;;;;;;;;6285575;22;20019;-80
2023/05/24 02:10:30;;;;;;;8.27;4.40;;;;;;;;;;6283482;22;20015;-81
2023/05/24 02:13:16;;;;;;;6.97;4.80;;;;;;;;;;6281416;22;20017;-80
2023/05/24 02:16:03;;;;;;;6.35;5.05;;;;;;;;;;6281621;22;20641;-79
2023/05/24 02:18:49;;;;;;;6.22;4.55;;;;;;;;;;6280945;22;20016;-82
2023/05/24 02:21:35;;;;;;;7.18;5.40;;;;;;;;;;6281071;22;20015;-80
2023/05/24 02:24:22;;;;;;;11.65;6.80;;;;;;;;;;6282788;22;20011;-82
2023/05/24 02:27:08;;;;;;;10.90;6.38;;;;;;;;;;6281186;22;20020;-81
2023/05/24 02:29:53;;;;;;;10.23;6.15;;;;;;;;;;6260860;22;20024;-80
2023/05/24 02:32:39;;;;;;;11.10;5.30;;;;;;;;;;6261672;22;20016;-80
2023/05/24 02:35:25;;;;;;;6.25;4.57;;;;;;;;;;6261553;22;20015;-81
2023/05/24 02:38:10;;;;;;;9.85;5.00;;;;;;;;;;6284248;22;20023;-80
2023/05/24 02:40:55;;;;;;;9.13;4.95;;;;;;;;;;6282893;22;20015;-82
2023/05/24 02:43:41;;;;;;;8.45;5.30;;;;;;;;;;6283814;22;20016;-79
2023/05/24 02:46:26;;;;;;;7.40;4.57;;;;;;;;;;6283072;22;20016;-80
2023/05/24 02:49:11;;;;;;;7.25;5.18;;;;;;;;;;6284221;22;20016;-80
2023/05/24 02:51:57;;;;;;;18.30;5.50;;;;;;;;;;6282834;22;20445;-79
2023/05/24 02:54:42;;;;;;;7.50;4.55;;;;;;;;;;6282817;22;20011;-81
2023/05/24 02:57:28;;;;;;;9.82;5.50;;;;;;;;;;6282249;22;20023;-80
2023/05/24 03:00:15;;;;;;;11.75;4.70;;;;;;;;;;6261422;22;20020;-81
2023/05/24 03:03:02;;;;;;;8.38;4.55;;;;;;;;;;6282598;22;20015;-81
2023/05/24 03:05:48;;;;;;;7.68;6.30;;;;;;;;;;6282424;22;20012;-80
2023/05/24 03:08:33;;;;;;;11.00;5.68;;;;;;;;;;6284008;22;20019;-80
2023/05/24 03:11:22;;;;;;;10.32;5.55;;;;;;;;;;6282685;22;20019;-81
2023/05/24 03:14:09;;;;;;;11.50;6.30;;;;;;;;;;6260569;22;20019;-80
2023/05/24 03:16:56;;;;;;;8.80;5.50;;;;;;;;;;6261316;22;20436;-80
2023/05/24 03:19:42;;;;;;;7.13;4.95;;;;;;;;;;6283902;22;20066;-81
2023/05/24 03:22:27;;;;;;;9.95;5.30;;;;;;;;;;6285412;22;20012;-80
2023/05/24 03:25:13;;;;;;;7.38;5.18;;;;;;;;;;6283140;22;20015;-80
2023/05/24 03:27:59;;;;;;;8.02;4.75;;;;;;;;;;6284982;22;20023;-79
2023/05/24 03:30:45;;;;;;;6.63;4.07;;;;;;;;;;6283669;22;20016;-81
2023/05/24 03:33:30;;;;;;;7.05;4.78;;;;;;;;;;6284108;22;20011;-81
2023/05/24 03:36:16;;;;;;;5.88;4.30;;;;;;;;;;6283978;22;20008;-80
2023/05/24 03:39:03;;;;;;;7.93;4.80;;;;;;;;;;6283742;22;20425;-81
2023/05/24 03:41:55;;;;;;;13.60;5.07;;;;;;;;;;6282909;22;20012;-80
2023/05/24 03:44:42;;;;;;;7.13;4.38;;;;;;;;;;6283387;22;20428;-80
2023/05/24 03:47:27;;;;;;;6.80;4.63;;;;;;;;;;6283738;22;20016;-80
2023/05/24 03:50:13;;;;;;;11.35;4.68;;;;;;;;;;6284350;22;20016;-81
2023/05/24 03:52:58;;;;;;;7.57;4.93;;;;;;;;;;6283487;22;20011;-81
2023/05/24 03:55:43;;;;;;;8.65;4.80;;;;;;;;;;6283658;22;20016;-80
2023/05/24 03:58:30;;;;;;;5.55;4.10;;;;;;;;;;6283532;22;20016;-81
2023/05/24 04:01:16;;;;;;;7.20;5.28;;;;;;;;;;6285055;22;20016;-81
2023/05/24 04:04:04;;;;;;;8.35;5.60;;;;;;;;;;6284936;22;20016;-80
2023/05/24 04:06:49;;;;;;;6.80;5.00;;;;;;;;;;6283468;22;20020;-80
2023/05/24 04:09:34;;;;;;;7.97;5.70;;;;;;;;;;6283946;22;20016;-82
2023/05/24 04:12:20;;;;;;;7.72;5.97;;;;;;;;;;6282688;22;20011;-79
2023/05/24 04:15:06;;;;;;;8.70;6.00;;;;;;;;;;6283716;22;20016;-81
2023/05/24 04:17:53;;;;;;;12.13;6.97;;;;;;;;;;6283430;22;20011;-83
2023/05/24 04:20:40;;;;;;;9.35;6.25;;;;;;;;;;6283177;22;20012;-81
2023/05/24 04:23:25;;;;;;;9.90;6.43;;;;;;;;;;6283463;22;20008;-82
2023/05/24 04:26:11;;;;;;;10.25;6.50;;;;;;;;;;6283117;22;20015;-81
2023/05/24 04:28:56;;;;;;;10.63;5.90;;;;;;;;;;6283574;22;20016;-80
2023/05/24 04:31:44;;;;;;;10.52;6.40;;;;;;;;;;6283503;22;20619;-80
2023/05/24 04:34:32;;;;;;;12.77;6.72;;;;;;;;;;6283122;22;20015;-79
2023/05/24 04:37:18;;;;;;;11.55;6.55;;;;;;;;;;6283722;22;20019;-80
2023/05/24 04:40:07;;;;;;;10.25;5.57;;;;;;;;;;6283619;22;20325;-80
2023/05/24 04:42:52;;;;;;;9.30;6.07;;;;;;;;;;6283314;22;20429;-81
2023/05/24 04:45:38;;;;;;;7.03;5.18;;;;;;;;;;6284522;22;20011;-81
2023/05/24 04:48:24;;;;;;;7.55;4.70;;;;;;;;;;6284171;22;20623;-80
2023/05/24 04:51:09;;;;;;;8.05;4.95;;;;;;;;;;6284940;22;20404;-80
2023/05/24 04:53:54;;;;;;;8.23;4.50;;;;;;;;;;6284977;22;20012;-81
2023/05/24 04:56:40;;;;;;;8.45;4.45;;;;;;;;;;6283598;22;20020;-80
2023/05/24 04:59:26;;;;;;;11.43;5.20;;;;;;;;;;6284827;22;20016;-80
2023/05/24 05:02:11;;;;;;;7.68;4.57;;;;;;;;;;6283947;22;20016;-83
2023/05/24 05:04:57;;;;;;;6.68;4.10;;;;;;;;;;6283472;22;20016;-81
2023/05/24 05:07:42;;;;;;;9.73;4.25;;;;;;;;;;6283093;22;20019;-80
2023/05/24 05:10:27;;;;;;;5.90;4.40;;;;;;;;;;6282654;22;20016;-81
2023/05/24 05:13:16;;;;;;;9.57;4.90;;;;;;;;;;6283182;22;20024;-82
2023/05/24 05:16:01;;;;;;;12.30;4.93;;;;;;;;;;6284217;22;20015;-79
2023/05/24 05:18:47;;;;;;;6.70;4.70;;;;;;;;;;6284579;22;20019;-81
2023/05/24 05:21:33;;;;;;;8.63;3.90;;;;;;;;;;6284509;22;20015;-80
2023/05/24 05:24:18;;;;;;;7.80;4.45;;;;;;;;;;6284019;22;20020;-79
2023/05/24 05:27:04;;;;;;;6.55;3.97;;;;;;;;;;6275057;22;20020;-82
2023/05/24 05:29:49;;;;;;;8.65;5.13;;;;;;;;;;6284153;22;20388;-82
2023/05/24 05:32:35;;;;;;;5.57;3.40;;;;;;;;;;6283908;22;20012;-81
2023/05/24 05:35:20;;;;;;;6.47;4.10;;;;;;;;;;6284214;22;20336;-81
2023/05/24 05:38:06;;;;;;;7.28;3.55;;;;;;;;;;6283579;22;20023;-79
2023/05/24 05:40:51;;;;;;;5.78;3.50;;;;;;;;;;6284633;22;20012;-81
2023/05/24 05:43:37;;;;;;;5.47;3.28;;;;;;;;;;6285875;22;20012;-81
2023/05/24 05:46:23;;;;;;;4.30;2.95;;;;;;;;;;6286152;22;20015;-80
2023/05/24 05:49:09;;;;;;;5.55;3.70;;;;;;;;;;6285647;22;20016;-80
2023/05/24 05:51:54;;;;;;;4.78;3.67;;;;;;;;;;6284505;22;20016;-81
2023/05/24 05:54:39;;;;;;;6.85;3.70;;;;;;;;;;6282587;22;20336;-81
2023/05/24 05:57:25;;;;;;;7.78;3.78;;;;;;;;;;6282856;22;20020;-81
2023/05/24 06:00:11;;;;;;;8.40;4.47;;;;;;;;;;6280597;22;20016;-81
2023/05/24 06:03:00;;;;;;;6.43;4.82;;;;;;;;;;6282516;22;20016;-81
2023/05/24 06:05:46;;;;;;;8.05;4.93;;;;;;;;;;6281585;22;20325;-82
2023/05/24 06:08:33;;;;;;;12.15;6.18;;;;;;;;;;6279646;22;20020;-82
2023/05/24 06:11:19;;;;;;;8.95;5.68;;;;;;;;;;6281892;22;20016;-82
2023/05/24 06:14:05;;;;;;;10.05;5.80;;;;;;;;;;6281279;22;20015;-82
2023/05/24 06:16:54;;;;;;;9.18;6.10;;;;;;;;;;6259593;22;20016;-80
2023/05/24 06:19:39;;;;;;;12.10;6.05;;;;;;;;;;6280579;22;20023;-80
2023/05/24 06:22:26;;;;;;;11.52;6.00;;;;;;;;;;6282186;22;20016;-81
2023/05/24 06:25:13;;;;;;;11.95;7.05;;;;;;;;;;6279818;22;20015;-80
2023/05/24 06:27:58;;;;;;;9.07;5.78;;;;;;;;;;6282316;22;20020;-82
2023/05/24 06:30:46;;;;;;;16.50;6.50;;;;;;;;;;6281754;22;20332;-83
2023/05/24 06:33:32;;;;;;;8.18;5.55;;;;;;;;;;6280624;22;20019;-82
2023/05/24 06:36:22;;;;;;;7.82;5.22;;;;;;;;;;6280384;22;20016;-80
2023/05/24 06:39:09;;;;;;;11.07;6.90;;;;;;;;;;6284384;22;20007;-83
2023/05/24 06:41:55;;;;;;;9.38;6.38;;;;;;;;;;6259185;22;20011;-81
2023/05/24 06:44:43;;;;;;;9.00;5.80;;;;;;;;;;6281924;22;20016;-80
2023/05/24 06:47:28;;;;;;;9.10;5.30;;;;;;;;;;6282106;22;20348;-81
2023/05/24 06:50:13;;;;;;;8.25;4.90;;;;;;;;;;6282341;22;20012;-83
2023/05/24 06:52:59;;;;;;;6.43;4.38;;;;;;;;;;6281918;22;20423;-81
2023/05/24 06:55:44;;;;;;;7.53;5.22;;;;;;;;;;6281293;22;20012;-81
2023/05/24 06:58:30;;;;;;;5.70;4.68;;;;;;;;;;6284322;22;20436;-82
2023/05/24 07:01:15;;;;;;;8.80;5.72;;;;;;;;;;6283090;22;20015;-83
2023/05/24 07:04:01;;;;;;;8.55;5.10;;;;;;;;;;6281605;22;20421;-80
2023/05/24 07:06:46;;;;;;;10.35;5.22;;;;;;;;;;6280440;22;20622;-81
2023/05/24 07:09:33;;;;;;;9.10;5.57;;;;;;;;;;6280215;22;20012;-81
2023/05/24 07:12:18;;;;;;;8.93;5.70;;;;;;;;;;6281284;22;20016;-81
2023/05/24 07:15:04;;;;;;;8.38;5.70;;;;;;;;;;6283081;22;20012;-82
2023/05/24 07:17:52;;;;;;;9.20;5.50;;;;;;;;;;6281152;22;20066;-80
2023/05/24 07:20:36;;;;;;;7.82;5.78;;;;;;;;;;6281103;22;20346;-82
2023/05/24 07:23:22;;;;;;;9.57;5.30;;;;;;;;;;6283282;22;20015;-80
2023/05/24 07:26:08;;;;;;;8.65;5.00;;;;;;;;;;6259835;22;20011;-80
2023/05/24 07:28:53;;;;;;;8.20;5.07;;;;;;;;;;6281084;22;20016;-80
2023/05/24 07:31:39;;;;;;;8.95;5.63;;;;;;;;;;6283317;22;20328;-79
2023/05/24 07:34:26;;;;;;;6.38;4.95;;;;;;;;;;6283372;22;20015;-79
2023/05/24 07:37:12;;;;;;;6.80;4.90;;;;;;;;;;6282720;22;20011;-79
2023/05/24 07:39:57;;;;;;;6.20;4.45;;;;;;;;;;6283644;22;20015;-79
2023/05/24 07:42:43;;;;;;;8.80;4.35;;;;;;;;;;6282932;22;20420;-80
2023/05/24 07:45:29;;;;;;;8.57;4.20;;;;;;;;;;6283522;22;20327;-80
2023/05/24 07:48:15;;;;;;;8.40;4.25;;;;;;;;;;6282494;22;20352;-79
2023/05/24 07:51:00;;;;;;;9.18;4.68;;;;;;;;;;6282836;22;20420;-79
2023/05/24 07:53:46;;;;;;;7.47;4.28;;;;;;;;;;6283707;22;20317;-80
2023/05/24 07:56:31;;;;;;;7.35;3.67;;;;;;;;;;6283224;22;20020;-79
2023/05/24 07:59:17;;;;;;;7.40;4.15;;;;;;;;;;6283288;22;20007;-79
2023/05/24 08:02:04;;;;;;;10.20;6.38;;;;;;;;;;6283138;22;20420;-81
2023/05/24 08:04:50;;;;;;;8.73;3.95;;;;;;;;;;6283097;22;20023;-80
2023/05/24 08:07:36;;;;;;;7.45;4.38;;;;;;;;;;6283631;22;20016;-80
2023/05/24 08:10:22;;;;;;;9.65;4.18;;;;;;;;;;6283543;22;20012;-80
2023/05/24 08:13:06;;;;;;;6.15;4.32;;;;;;;;;;6283316;22;20016;-80
2023/05/24 08:15:52;;;;;;;5.82;4.03;;;;;;;;;;6283491;22;20703;-79
2023/05/24 08:18:38;;;;;;;9.25;4.03;;;;;;;;;;6281161;22;20015;-81
2023/05/24 08:21:23;;;;;;;6.32;3.97;;;;;;;;;;6281842;22;20012;-82
2023/05/24 08:24:08;;;;;;;6.30;4.00;;;;;;;;;;6280834;22;20429;-81
2023/05/24 08:26:54;;;;;;;5.72;3.85;;;;;;;;;;6273621;22;20024;-81
2023/05/24 08:29:40;;;;;;;7.57;3.90;;;;;;;;;;6283544;22;20012;-81
2023/05/24 08:32:25;;;;;;;5.72;3.90;;;;;;;;;;6283074;22;20019;-81
2023/05/24 08:35:10;;;;;;;7.07;3.88;;;;;;;;;;6283130;22;20019;-81
2023/05/24 08:37:56;;;;;;;6.03;4.13;;;;;;;;;;6281615;22;20110;-82
2023/05/24 08:40:41;;;;;;;7.38;4.82;;;;;;;;;;6282730;22;20016;-81
2023/05/24 08:43:28;;;;;;;8.40;4.47;;;;;;;;;;6283478;22;20336;-79
2023/05/24 08:46:15;;;;;;;6.57;4.20;;;;;;;;;;6281993;22;20423;-80
2023/05/24 08:49:02;;;;;;;8.88;4.50;;;;;;;;;;6281542;22;20008;-80
2023/05/24 08:51:48;;;;;;;5.03;3.63;;;;;;;;;;6283277;22;20011;-81
2023/05/24 08:54:35;;;;;;;4.40;3.30;;;;;;;;;;6281854;22;20019;-80
2023/05/24 08:57:21;;;;;;;4.60;3.35;;;;;;;;;;6283491;22;20015;-81
2023/05/24 09:00:10;;;;;;;6.75;3.50;;;;;;;;;;6281665;22;20016;-80
2023/05/24 09:02:57;;;;;;;7.47;3.83;;;;;;;;;;6282748;22;20012;-79
2023/05/24 09:05:43;;;;;;;5.95;3.97;;;;;;;;;;6282128;22;20019;-80
2023/05/24 09:08:35;;;;;;;4.97;3.28;;;;;;;;;;6282840;22;20015;-82
2023/05/24 09:11:23;;;;;;;7.60;3.65;;;;;;;;;;6283659;22;20015;-81
2023/05/24 09:14:09;;;;;;;5.95;3.67;;;;;;;;;;6283543;22;20020;-80
2023/05/24 09:16:55;;;;;;;6.38;3.53;;;;;;;;;;6283660;22;20015;-81
2023/05/24 09:19:47;;;;;;;7.43;4.50;;;;;;;;;;6262175;22;20023;-80
2023/05/24 09:22:33;;;;;;;9.10;3.65;;;;;;;;;;6283504;22;20012;-80
2023/05/24 09:25:20;;;;;;;3.97;3.03;;;;;;;;;;6282191;22;20011;-79
2023/05/24 09:28:08;;;;;;;6.82;3.75;;;;;;;;;;6283364;22;20020;-79
2023/05/24 09:31:00;;;;;;;7.05;3.92;;;;;;;;;;6284945;22;20015;-80
2023/05/24 09:33:47;;;;;;;6.90;3.15;;;;;;;;;;6283938;22;20433;-80
2023/05/24 09:36:35;;;;;;;4.85;3.25;;;;;;;;;;6284670;22;20016;-81
2023/05/24 09:39:22;;;;;;;6.53;3.33;;;;;;;;;;6283757;22;20024;-80
2023/05/24 09:42:08;;;;;;;5.10;3.53;;;;;;;;;;6283440;22;20432;-81
2023/05/24 09:45:07;;;;;;;5.22;3.13;;;;;;;;;;6284579;22;20015;-80
2023/05/24 09:47:53;;;;;;;7.95;3.70;;;;;;;;;;6284703;22;20016;-80
2023/05/24 09:50:38;;;;;;;7.68;3.70;;;;;;;;;;6283358;22;20492;-82
2023/05/24 09:53:23;;;;;;;7.05;3.78;;;;;;;;;;6282972;22;20016;-81
2023/05/24 09:56:09;;;;;;;4.82;3.63;;;;;;;;;;6283229;22;20015;-81
2023/05/24 09:58:55;;;;;;;5.35;2.90;;;;;;;;;;6284857;22;20320;-81
2023/05/24 10:01:40;;;;;;;5.55;3.17;;;;;;;;;;6283163;22;20024;-82
2023/05/24 10:04:32;;;;;;;8.27;3.63;;;;;;;;;;6283212;22;20012;-81
2023/05/24 10:07:17;;;;;;;6.18;3.55;;;;;;;;;;6283410;22;20015;-82
2023/05/24 10:10:04;;;;;;;6.40;3.47;;;;;;;;;;6282971;22;20015;-82
2023/05/24 10:12:52;;;;;;;5.28;3.20;;;;;;;;;;6282727;22;20011;-82
2023/05/24 10:15:37;;;;;;;8.27;3.28;;;;;;;;;;6284813;22;20020;-81
2023/05/24 10:18:23;;;;;;;4.20;3.30;;;;;;;;;;6283102;22;20023;-81
2023/05/24 10:21:09;;;;;;;8.85;3.47;;;;;;;;;;6283747;22;20016;-80
2023/05/24 10:23:58;;;;;;;7.85;3.67;;;;;;;;;;6283785;22;20424;-79
2023/05/24 10:26:47;;;;;;;7.05;3.63;;;;;;;;;;6282902;22;20391;-79
2023/05/24 10:29:50;;;;;;;6.03;4.20;;;;;;;;;;6284280;22;20020;-80
2023/05/24 10:32:37;;;;;;;9.73;4.65;;;;;;;;;;6282801;22;20015;-79
2023/05/24 10:35:23;;;;;;;10.07;4.30;;;;;;;;;;6284125;22;20012;-80
2023/05/24 10:38:09;;;;;;;10.80;5.00;;;;;;;;;;6285057;22;20011;-80
2023/05/24 10:40:54;;;;;;;8.02;4.78;;;;;;;;;;6284230;22;20020;-81
2023/05/24 10:43:45;;;;;;;5.97;3.90;;;;;;;;;;6284474;22;20011;-80
2023/05/24 10:46:31;;;;;;;7.18;3.70;;;;;;;;;;6285007;22;20019;-80
2023/05/24 10:49:18;;;;;;;10.52;3.92;;;;;;;;;;6283926;22;20421;-82
2023/05/24 10:52:07;;;;;;;7.00;4.40;;;;;;;;;;6284286;22;20012;-81
2023/05/24 10:55:08;;;;;;;7.28;4.05;;;;;;;;;;6285346;22;20016;-83
2023/05/24 10:57:54;;;;;;;6.57;4.00;;;;;;;;;;6285825;22;20020;-81
2023/05/24 11:00:44;;;;;;;6.03;3.70;;;;;;;;;;6285057;22;20020;-82
2023/05/24 11:03:34;;;;;;;7.32;3.88;;;;;;;;;;6285445;22;20425;-80
2023/05/24 11:06:19;;;;;;;5.80;4.00;;;;;;;;;;6285088;22;20015;-80
2023/05/24 11:09:09;;;;;;;5.18;3.85;;;;;;;;;;6285310;22;20015;-80
2023/05/24 11:12:22;;;;;;;14.93;4.78;;;;;;;;;;6262754;22;20803;-80
2023/05/24 11:15:11;;;;;;;7.13;3.50;;;;;;;;;;6285453;22;20425;-80
2023/05/24 11:18:08;;;;;;;8.75;3.67;;;;;;;;;;6285640;22;20421;-80
2023/05/24 11:20:55;;;;;;;6.55;3.90;;;;;;;;;;6284680;22;20019;-80
2023/05/24 11:23:42;;;;;;;6.18;3.53;;;;;;;;;;6285557;22;20016;-80
2023/05/24 11:26:28;;;;;;;10.07;3.92;;;;;;;;;;6278024;22;20011;-80
2023/05/24 11:29:19;;;;;;;7.78;3.97;;;;;;;;;;6284208;22;20011;-80
2023/05/24 11:32:06;;;;;;;6.38;3.80;;;;;;;;;;6285215;22;20011;-81
2023/05/24 11:34:51;;;;;;;10.27;3.72;;;;;;;;;;6284276;22;20024;-80
2023/05/24 11:37:40;;;;;;;5.32;4.05;;;;;;;;;;6285404;22;20012;-79
2023/05/24 11:40:25;;;;;;;6.55;4.40;;;;;;;;;;6285205;22;20019;-80
2023/05/24 11:43:15;;;;;;;11.90;5.30;;;;;;;;;;6285186;22;20020;-80
2023/05/24 11:46:01;;;;;;;11.43;4.97;;;;;;;;;;6285245;22;20020;-81
2023/05/24 11:48:56;;;;;;;13.45;6.00;;;;;;;;;;6283073;22;20007;-81
2023/05/24 11:51:41;;;;;;;;;;;;;;;;;;6285894;22;20015;-81
2023/05/24 11:54:27;;;;;;;10.95;6.65;;;;;;;;;;6285036;22;19903;-80
2023/05/24 11:57:13;;;;;;;10.00;6.80;;;;;;;;;;6284829;22;20012;-81
2023/05/24 11:59:58;;;;;;;14.05;7.80;;;;;;;;;;6285367;22;20012;-81
2023/05/24 12:02:44;;;;;;;10.45;6.75;;;;;;;;;;6282737;22;20012;-81
2023/05/24 12:05:30;;;;;;;10.48;7.28;;;;;;;;;;6285209;22;20015;-79
2023/05/24 12:08:16;;;;;;;11.38;7.80;;;;;;;;;;6284634;22;20019;-82
2023/05/24 12:11:04;;;;;;;10.25;7.75;;;;;;;;;;6284806;22;20019;-82
2023/05/24 12:13:48;;;;;;;12.50;7.18;;;;;;;;;;6283788;22;20015;-82
2023/05/24 12:16:35;;;;;;;10.02;7.70;;;;;;;;;;6284206;22;20015;-80
2023/05/24 12:19:24;;;;;;;17.00;10.07;;;;;;;;;;6284405;22;20015;-81
2023/05/24 12:22:09;;;;;;;17.30;9.95;;;;;;;;;;6283549;22;20016;-80
2023/05/24 12:24:56;;;;;;;16.65;10.25;;;;;;;;;;6283736;22;20016;-81
2023/05/24 12:27:46;;;;;;;14.85;9.63;;;;;;;;;;6283839;22;20015;-81
2023/05/24 12:30:32;;;;;;;9.30;6.93;;;;;;;;;;6284541;22;20020;-82
2023/05/24 12:33:18;;;;;;;8.93;7.13;;;;;;;;;;6284741;22;20008;-80
2023/05/24 12:36:05;;;;;;;10.60;6.35;;;;;;;;;;6284630;22;20012;-81
2023/05/24 12:38:49;;;;;;;8.85;6.53;;;;;;;;;;6284309;22;20325;-80
2023/05/24 12:41:35;;;;;;;6.95;5.45;;;;;;;;;;6284655;22;20016;-80
2023/05/24 12:44:25;;;;;;;11.27;6.18;;;;;;;;;;6282552;22;20011;-80
2023/05/24 12:47:10;;;;;;;6.60;5.88;;;;;;;;;;6286250;22;20019;-80
2023/05/24 12:49:56;;;;;;;10.20;6.28;;;;;;;;;;6286894;22;20015;-80
2023/05/24 12:52:45;;;;;;;9.35;6.20;;;;;;;;;;6286038;22;20020;-80
2023/05/24 12:55:30;;;;;;;10.27;6.35;;;;;;;;;;6286175;22;20416;-80
2023/05/24 12:58:18;;;;;;;9.65;7.72;;;;;;;;;;6286258;22;20008;-81
2023/05/24 13:01:03;;;;;;;8.80;7.57;;;;;;;;;;6285200;22;20015;-80
2023/05/24 13:03:49;;;;;;;10.93;7.50;;;;;;;;;;6286880;22;20012;-82
2023/05/24 13:06:35;;;;;;;11.80;8.02;;;;;;;;;;6284813;22;20012;-82
2023/05/24 13:09:21;;;;;;;10.68;7.13;;;;;;;;;;6285306;22;20015;-81
2023/05/24 13:12:07;;;;;;;15.85;7.53;;;;;;;;;;6284888;22;20657;-83
2023/05/24 13:14:53;;;;;;;12.25;8.25;;;;;;;;;;6263686;22;20020;-81
2023/05/24 13:17:41;;;;;;;11.30;8.20;;;;;;;;;;6286643;22;20012;-82
2023/05/24 13:20:27;;;;;;;14.60;7.80;;;;;;;;;;6285146;22;20020;-81
2023/05/24 13:23:12;;;;;;;13.30;8.27;;;;;;;;;;6284726;22;20020;-80
2023/05/24 13:25:57;;;;;;;12.95;8.00;;;;;;;;;;6279507;22;20015;-81
2023/05/24 13:28:42;;;;;;;10.52;8.30;;;;;;;;;;6286448;22;20019;-80
2023/05/24 13:31:28;;;;;;;12.93;9.30;;;;;;;;;;6284118;22;20415;-80
2023/05/24 13:34:13;;;;;;;13.02;7.53;;;;;;;;;;6286104;22;20011;-80
2023/05/24 13:36:59;;;;;;;13.18;8.10;;;;;;;;;;6286240;22;20011;-81
2023/05/24 13:39:44;;;;;;;11.60;8.65;;;;;;;;;;6285197;22;20169;-80
2023/05/24 13:42:29;;;;;;;12.57;7.97;;;;;;;;;;6263422;22;20015;-81
2023/05/24 13:45:15;;;;;;;9.93;7.95;;;;;;;;;;6284882;22;20012;-79
2023/05/24 13:48:02;;;;;;;9.80;7.50;;;;;;;;;;6284266;22;20007;-80
2023/05/24 13:50:48;;;;;;;16.50;8.10;;;;;;;;;;6285004;22;20007;-81
2023/05/24 13:53:37;;;;;;;32.35;9.93;;;;;;;;;;6284224;22;20420;-81
2023/05/24 13:56:31;;;;;;;14.52;7.82;;;;;;;;;;6284876;22;20015;-80
2023/05/24 13:59:16;;;;;;;11.40;7.93;;;;;;;;;;6284858;22;20015;-81
2023/05/24 14:02:02;;;;;;;8.48;7.20;;;;;;;;;;6286170;22;20008;-81
2023/05/24 14:04:47;;;;;;;11.23;8.02;;;;;;;;;;6285109;22;20440;-80
2023/05/24 14:07:32;;;;;;;10.85;8.93;;;;;;;;;;6284741;22;20023;-80
2023/05/24 14:10:18;;;;;;;10.15;7.55;;;;;;;;;;6286591;22;20011;-80
2023/05/24 14:13:05;;;;;;;8.50;6.72;;;;;;;;;;6286881;22;20015;-82
2023/05/24 14:15:50;;;;;;;9.73;5.80;;;;;;;;;;6285714;22;20019;-81
2023/05/24 14:18:36;;;;;;;7.68;6.63;;;;;;;;;;6286239;22;20015;-81
2023/05/24 14:21:22;;;;;;;10.77;6.72;;;;;;;;;;6262994;22;20015;-81
2023/05/24 14:24:08;;;;;;;18.58;7.78;;;;;;;;;;6283630;22;20015;-83
2023/05/24 14:26:54;;;;;;;17.90;9.07;;;;;;;;;;6258984;22;20012;-83
2023/05/24 14:29:40;;;;;;;18.05;10.35;;;;;;;;;;6267273;22;20320;-82
2023/05/24 14:32:26;;;;;;;20.90;11.50;;;;;;;;;;6266427;22;20356;-82
2023/05/24 14:35:11;;;;;;;20.60;12.50;;;;;;;;;;6265607;22;20436;-83
2023/05/24 14:37:57;;;;;;;18.95;12.90;;;;;;;;;;6290289;22;20016;-82
2023/05/24 14:40:46;;;;;;;18.52;12.75;;;;;;;;;;6289464;22;20011;-82
2023/05/24 14:43:32;;;;;;;14.43;11.95;;;;;;;;;;6265862;22;20360;-83
2023/05/24 14:46:18;;;;;;;16.60;10.32;;;;;;;;;;6284062;22;20019;-84
2023/05/24 14:49:03;;;;;;;15.57;11.30;;;;;;;;;;6286002;22;20020;-84
2023/05/24 14:51:48;;;;;;;18.02;12.57;;;;;;;;;;6260779;22;20015;-83
2023/05/24 14:54:33;;;;;;;15.50;13.10;;;;;;;;;;6260959;22;20329;-84
2023/05/24 14:57:19;;;;;;;16.50;13.70;;;;;;;;;;6283621;22;20023;-83
2023/05/24 15:00:05;;;;;;;22.17;14.90;;;;;;;;;;6260659;22;20397;-83
2023/05/24 15:02:50;;;;;;;19.05;14.50;;;;;;;;;;6260891;22;20016;-83
2023/05/24 15:05:36;;;;;;;16.25;14.32;;;;;;;;;;6260551;22;20488;-85
2023/05/24 15:08:24;;;;;;;16.88;14.68;;;;;;;;;;6261167;22;20019;-84
2023/05/24 15:11:11;;;;;;;18.05;15.02;;;;;;;;;;6260843;22;20008;-84
2023/05/24 15:13:58;;;;;;;18.58;15.25;;;;;;;;;;6282345;22;20015;-86
2023/05/24 15:16:43;;;;;;;16.45;14.75;;;;;;;;;;6261027;22;20325;-83
2023/05/24 15:19:29;;;;;;;17.40;14.23;;;;;;;;;;6258115;22;20003;-84
2023/05/24 15:22:14;;;;;;;16.55;14.10;;;;;;;;;;6280485;22;20020;-83
2023/05/24 15:25:00;;;;;;;15.45;13.82;;;;;;;;;;6280853;22;20016;-84
2023/05/24 15:27:46;;;;;;;16.05;12.73;;;;;;;;;;6257785;22;20024;-83
2023/05/24 15:30:31;;;;;;;14.68;12.80;;;;;;;;;;6279023;22;20019;-83
2023/05/24 15:33:17;;;;;;;15.02;12.85;;;;;;;;;;6257970;22;20019;-83
2023/05/24 15:36:03;;;;;;;17.48;15.35;;;;;;;;;;6280177;22;20205;-82
2023/05/24 15:38:49;;;;;;;22.10;15.73;;;;;;;;;;6281004;22;20328;-85
2023/05/24 15:41:36;;;;;;;20.98;17.58;;;;;;;;;;6260880;22;20011;-83
2023/05/24 15:44:21;;;;;;;23.50;17.50;;;;;;;;;;6282081;22;20396;-82
2023/05/24 15:47:07;;;;;;;19.15;14.77;;;;;;;;;;6281279;22;20016;-82
2023/05/24 15:49:52;;;;;;;18.02;14.05;;;;;;;;;;6280533;22;20468;-82
2023/05/24 15:52:38;;;;;;;17.83;14.32;;;;;;;;;;6278847;22;20012;-83
2023/05/24 15:55:23;;;;;;;18.50;14.07;;;;;;;;;;6280167;22;20364;-83
2023/05/24 15:58:12;;;;;;;20.95;15.32;;;;;;;;;;6280100;22;20020;-82
2023/05/24 16:00:57;;;;;;;16.45;14.20;;;;;;;;;;6281517;22;20024;-83
2023/05/24 16:03:43;;;;;;;16.02;14.32;;;;;;;;;;6280233;22;20023;-84
2023/05/24 16:06:29;;;;;;;22.45;15.90;;;;;;;;;;6280874;22;20016;-82
2023/05/24 16:09:14;;;;;;;18.08;14.38;;;;;;;;;;6281161;22;20012;-82
2023/05/24 16:12:00;;;;;;;21.70;13.60;;;;;;;;;;6281013;22;20007;-83
2023/05/24 16:14:45;;;;;;;19.27;13.48;;;;;;;;;;6279046;22;20012;-82
2023/05/24 16:17:31;;;;;;;15.43;13.68;;;;;;;;;;6280889;22;20016;-81
2023/05/24 16:20:16;;;;;;;15.43;12.88;;;;;;;;;;6281086;22;20016;-81
2023/05/24 16:23:02;;;;;;;14.60;12.27;;;;;;;;;;6281299;22;20455;-81
2023/05/24 16:25:48;;;;;;;13.60;11.85;;;;;;;;;;6280580;22;20012;-82
2023/05/24 16:28:33;;;;;;;14.98;12.05;;;;;;;;;;6281543;22;20015;-81
2023/05/24 16:31:18;;;;;;;13.85;11.75;;;;;;;;;;6280537;22;20019;-82